Time;durP1;ratioP1;P1;durP2;ratioP2;P2;SDS_P1;SDS_P2;PMS_P1;PMS_P2;Temp;Humidity;BMP_temperature;BMP_pressure;BME280_temperature;BME280_humidity;BME280_pressure;Samples;Min_cycle;Max_cycle;Signal;HPM_P1;HPM_P2
2022/04/19 00:00:20;;;;;;;8.05;7.28;;;;;;;4.72;69.15;98779.23;1712693;82;21057;-66
2022/04/19 00:02:47;;;;;;;7.12;6.42;;;;;;;4.71;69.20;98784.19;1716464;83;20971;-65
2022/04/19 00:05:15;;;;;;;6.58;5.97;;;;;;;4.68;69.37;98785.80;1717038;82;20911;-69
2022/04/19 00:07:44;;;;;;;7.17;6.47;;;;;;;4.71;69.37;98778.91;1723230;82;20896;-67
2022/04/19 00:10:11;;;;;;;6.37;5.83;;;;;;;4.73;69.29;98782.70;1716884;83;22052;-69
2022/04/19 00:12:39;;;;;;;6.70;5.87;;;;;;;4.74;69.29;98775.98;1713065;83;21006;-67
2022/04/19 00:15:07;;;;;;;7.40;6.65;;;;;;;4.71;69.35;98778.91;1714081;82;21496;-69
2022/04/19 00:17:35;;;;;;;6.15;5.42;;;;;;;4.72;69.29;98777.91;1720751;82;20892;-70
2022/04/19 00:20:03;;;;;;;6.22;5.72;;;;;;;4.72;69.27;98779.23;1703229;81;21072;-69
2022/04/19 00:22:31;;;;;;;6.58;5.87;;;;;;;4.73;69.34;98774.80;1713294;82;21245;-65
2022/04/19 00:24:59;;;;;;;6.40;5.80;;;;;;;4.86;68.81;98766.02;1714443;82;20974;-69
2022/04/19 00:27:27;;;;;;;5.55;5.05;;;;;;;4.81;69.10;98770.92;1716143;82;20990;-68
2022/04/19 00:29:54;;;;;;;5.92;5.28;;;;;;;4.83;69.03;98774.23;1714118;82;20966;-70
2022/04/19 00:32:23;;;;;;;5.45;4.92;;;;;;;4.84;68.98;98772.78;1713181;82;20912;-68
2022/04/19 00:34:50;;;;;;;5.17;4.67;;;;;;;4.85;68.91;98770.46;1713994;82;21100;-67
2022/04/19 00:37:19;;;;;;;4.95;4.45;;;;;;;4.85;68.81;98763.03;1705524;82;21109;-69
2022/04/19 00:39:45;;;;;;;4.97;4.47;;;;;;;4.81;68.80;98769.13;1693717;84;21078;-68
2022/04/19 00:42:12;;;;;;;4.85;4.45;;;;;;;4.80;68.76;98767.45;1705823;84;21036;-68
2022/04/19 00:44:41;;;;;;;4.92;4.40;;;;;;;4.82;68.66;98769.44;1705827;84;20953;-68
2022/04/19 00:47:09;;;;;;;4.87;4.47;;;;;;;4.83;68.58;98768.95;1693814;84;21664;-70
2022/04/19 00:49:39;;;;;;;4.70;4.30;;;;;;;4.82;68.61;98760.22;1678068;84;21278;-68
2022/04/19 00:52:07;;;;;;;4.05;3.75;;;;;;;4.84;68.57;98764.03;1706646;84;20996;-68
2022/04/19 00:54:34;;;;;;;5.87;4.83;;;;;;;5.27;67.27;98763.21;1706792;84;21522;-68
2022/04/19 00:57:01;;;;;;;5.22;3.80;;;;;;;5.08;67.21;98762.93;1706499;84;21131;-69
2022/04/19 00:59:29;;;;;;;4.50;4.10;;;;;;;4.87;68.06;98763.25;1704919;84;21170;-66
2022/04/19 01:01:57;;;;;;;4.10;3.67;;;;;;;4.82;68.13;98758.90;1706370;84;21597;-68
2022/04/19 01:04:26;;;;;;;4.40;4.00;;;;;;;4.78;68.19;98761.52;1706790;84;20996;-68
2022/04/19 01:06:54;;;;;;;4.30;3.90;;;;;;;4.79;68.20;98762.34;1706511;84;21601;-70
2022/04/19 01:09:23;;;;;;;4.50;4.10;;;;;;;4.80;68.21;98756.08;1706041;84;21031;-69
2022/04/19 01:14:39;;;;;;;4.90;4.40;;;;;;;4.74;68.21;98765.44;1706790;84;21610;-68
2022/04/19 01:17:08;;;;;;;5.20;4.47;;;;;;;4.72;68.23;98765.25;1704437;84;20968;-69
2022/04/19 01:19:39;;;;;;;4.67;4.28;;;;;;;4.68;68.26;98762.08;1701155;84;20921;-69
2022/04/19 01:22:12;;;;;;;3.70;3.40;;;;;;;4.65;68.29;98758.42;1679977;84;21040;-69
2022/04/19 01:24:39;;;;;;;4.28;3.90;;;;;;;4.60;68.24;98762.00;1694323;84;21278;-69
2022/04/19 01:27:06;;;;;;;4.30;3.60;;;;;;;4.53;68.27;98759.63;1704495;84;21554;-68
2022/04/19 01:29:35;;;;;;;4.35;3.95;;;;;;;4.47;68.37;98754.12;1706759;84;20961;-68
2022/04/19 01:32:03;;;;;;;4.37;3.98;;;;;;;4.45;68.46;98759.55;1706440;84;21067;-70
2022/04/19 01:34:31;;;;;;;4.97;4.00;;;;;;;4.42;68.53;98754.58;1679416;84;20968;-69
2022/04/19 01:37:00;;;;;;;5.00;4.37;;;;;;;4.40;68.63;98759.65;1706198;83;21141;-68
2022/04/19 01:42:14;;;;;;;;;;;;;;;4.37;68.72;98767.36;1709373;84;20921;-68
2022/04/19 01:44:43;;;;;;;4.20;3.80;;;;;;;4.38;68.79;98768.20;1693893;84;20124;-69
2022/04/19 01:47:10;;;;;;;5.75;4.60;;;;;;;4.32;68.99;98763.03;1665971;84;20947;-68
2022/04/19 01:49:38;;;;;;;4.75;4.35;;;;;;;4.30;69.17;98763.67;1706479;83;21178;-69
2022/04/19 01:52:08;;;;;;;5.03;4.53;;;;;;;4.31;69.36;98758.25;1706578;84;21035;-68
2022/04/19 01:54:37;;;;;;;6.75;4.53;;;;;;;4.38;69.42;98759.78;1706760;84;21411;-68
2022/04/19 01:57:04;;;;;;;4.92;4.45;;;;;;;4.38;69.48;98749.25;1704428;84;21066;-68
2022/04/19 01:59:36;;;;;;;3.92;3.62;;;;;;;4.41;69.42;98759.48;1704931;84;20902;-68
2022/04/19 02:02:04;;;;;;;4.25;3.92;;;;;;;4.38;69.38;98761.93;1705045;84;21918;-69
2022/04/19 02:04:31;;;;;;;3.80;3.50;;;;;;;4.39;69.21;98761.45;1706738;84;21003;-68
2022/04/19 02:06:59;;;;;;;5.08;4.58;;;;;;;4.36;69.09;98763.89;1705058;84;21461;-69
2022/04/19 02:09:27;;;;;;;4.25;3.95;;;;;;;4.31;69.01;98762.67;1706737;84;21049;-68
2022/04/19 02:11:55;;;;;;;4.85;4.45;;;;;;;4.24;68.97;98762.45;1685480;83;20921;-68
2022/04/19 02:14:23;;;;;;;4.92;4.33;;;;;;;4.19;69.02;98761.23;1678131;84;21172;-68
2022/04/19 02:16:52;;;;;;;4.97;4.42;;;;;;;4.15;69.16;98763.80;1682436;84;20968;-68
2022/04/19 02:19:20;;;;;;;4.87;4.22;;;;;;;4.11;69.32;98763.77;1700909;84;20957;-69
2022/04/19 02:21:46;;;;;;;5.05;4.55;;;;;;;4.06;69.53;98762.07;1678638;84;20960;-68
2022/04/19 02:24:14;;;;;;;4.40;4.00;;;;;;;4.06;69.66;98769.97;1706724;84;20981;-68
2022/04/19 02:26:41;;;;;;;4.60;4.20;;;;;;;4.08;69.73;98771.47;1706318;84;21490;-68
2022/04/19 02:29:11;;;;;;;4.20;3.62;;;;;;;4.08;69.76;98762.74;1700572;84;20921;-68
2022/04/19 02:31:40;;;;;;;5.62;4.60;;;;;;;4.08;69.71;98769.33;1706299;84;21068;-68
2022/04/19 02:34:08;;;;;;;4.92;4.47;;;;;;;4.05;69.59;98772.25;1706417;82;21566;-69
2022/04/19 02:36:35;;;;;;;4.78;4.37;;;;;;;4.03;69.52;98763.67;1706344;84;20960;-69
2022/04/19 02:39:02;;;;;;;4.47;4.17;;;;;;;3.99;69.55;98761.01;1694665;84;21234;-68
2022/04/19 02:41:29;;;;;;;4.58;4.17;;;;;;;3.96;69.56;98759.50;1706704;84;21001;-69
2022/04/19 02:43:59;;;;;;;4.40;4.10;;;;;;;3.98;69.57;98758.02;1705714;84;21032;-69
2022/04/19 02:46:27;;;;;;;4.75;4.35;;;;;;;3.97;69.45;98758.98;1706888;83;21023;-69
2022/04/19 02:49:04;;;;;;;4.80;4.40;;;;;;;3.94;69.38;98757.47;1706488;82;21011;-68
2022/04/19 02:51:25;;;;;;;4.60;4.20;;;;;;;3.90;69.31;98760.55;1705791;84;21274;-67
2022/04/19 02:53:53;;;;;;;5.33;4.90;;;;;;;3.85;69.30;98758.36;1706304;84;20913;-69
2022/04/19 02:56:20;;;;;;;4.97;4.55;;;;;;;3.81;69.28;98754.34;1706585;84;21570;-67
2022/04/19 02:58:46;;;;;;;4.20;3.80;;;;;;;3.78;69.22;98753.83;1692218;84;20998;-68
2022/04/19 03:01:14;;;;;;;4.70;4.00;;;;;;;3.78;69.20;98764.35;1691736;84;21469;-69
2022/04/19 03:03:41;;;;;;;4.00;3.70;;;;;;;3.75;69.34;98761.02;1706107;84;21315;-68
2022/04/19 03:06:08;;;;;;;4.35;3.95;;;;;;;3.74;69.56;98767.75;1677481;84;21066;-67
2022/04/19 03:08:35;;;;;;;4.50;4.10;;;;;;;3.76;69.62;98769.74;1691666;84;20881;-69
2022/04/19 03:11:03;;;;;;;4.87;4.47;;;;;;;3.81;69.69;98775.91;1686647;84;21543;-69
2022/04/19 03:13:35;;;;;;;4.80;4.40;;;;;;;3.84;69.75;98774.28;1693523;84;21008;-68
2022/04/19 03:16:04;;;;;;;4.50;4.03;;;;;;;3.83;69.79;98774.79;1693452;84;21415;-69
2022/04/19 03:18:31;;;;;;;6.95;6.20;;;;;;;3.83;70.00;98774.79;1691516;84;21527;-68
2022/04/19 03:20:59;;;;;;;5.47;4.97;;;;;;;3.86;70.03;98774.98;1693533;84;20952;-69
2022/04/19 03:29:02;;;;;;;;;;;;;;;4.02;69.95;98777.31;1691768;84;21268;-68
2022/04/19 03:31:31;;;;;;;6.55;5.90;;;;;;;4.01;69.96;98781.42;1687580;85;20427;-68
2022/04/19 03:34:01;;;;;;;6.45;5.78;;;;;;;4.03;69.92;98793.45;1687013;84;21555;-69
2022/04/19 03:36:29;;;;;;;6.97;6.28;;;;;;;4.01;69.79;98793.27;1688684;83;20951;-69
2022/04/19 03:38:57;;;;;;;8.05;7.30;;;;;;;3.99;69.65;98798.66;1694337;83;21552;-70
2022/04/19 03:44:29;;;;;;;10.45;7.28;;;;;;;3.97;69.66;98802.41;1682130;85;20919;-71
2022/04/19 03:47:09;;;;;;;10.00;8.93;;;;;;;3.97;69.81;98806.36;1722174;83;20979;-70
2022/04/19 03:49:40;;;;;;;13.53;11.08;;;;;;;4.02;69.93;98804.11;1717806;83;21054;-69
2022/04/19 03:52:07;;;;;;;12.98;11.48;;;;;;;4.03;69.89;98798.72;1721872;83;20999;-69
2022/04/19 03:54:36;;;;;;;14.03;12.53;;;;;;;4.05;69.78;98797.25;1722250;82;21121;-70
2022/04/19 03:57:07;;;;;;;14.00;12.50;;;;;;;4.06;69.65;98793.66;1722073;83;21040;-71
2022/04/19 03:59:38;;;;;;;29.05;21.52;;;;;;;4.12;69.71;98797.03;1718170;83;21064;-67
2022/04/19 04:02:06;;;;;;;29.07;21.15;;;;;;;4.19;69.76;98794.14;1722148;83;21517;-68
2022/04/19 04:04:34;;;;;;;19.37;15.65;;;;;;;4.24;69.63;98795.84;1722166;83;20962;-68
2022/04/19 04:07:02;;;;;;;16.52;12.20;;;;;;;4.27;69.51;98792.45;1722097;83;21308;-69
2022/04/19 04:09:35;;;;;;;14.30;12.28;;;;;;;4.31;69.47;98792.48;1720234;83;21530;-70
2022/04/19 04:11:57;;;;;;;10.35;9.25;;;;;;;4.34;69.42;98788.72;1720968;83;21247;-69
2022/04/19 04:14:25;;;;;;;9.28;7.92;;;;;;;4.35;69.46;98785.92;1691204;84;21004;-69
2022/04/19 04:16:52;;;;;;;10.88;8.18;;;;;;;4.43;69.26;98785.22;1690010;85;20899;-70
2022/04/19 04:19:20;;;;;;;17.62;8.95;;;;;;;4.50;69.16;98785.44;1722143;83;20999;-69
2022/04/19 04:21:49;;;;;;;9.53;8.05;;;;;;;4.53;69.08;98784.66;1715537;83;21016;-69
2022/04/19 04:24:16;;;;;;;8.35;6.92;;;;;;;4.57;69.10;98788.64;1693925;83;21449;-69
2022/04/19 04:26:43;;;;;;;7.85;6.47;;;;;;;4.67;69.04;98790.71;1721988;83;21162;-69
2022/04/19 04:29:11;;;;;;;8.30;6.65;;;;;;;4.78;68.84;98783.91;1694521;83;21583;-67
2022/04/19 04:31:39;;;;;;;8.05;6.78;;;;;;;4.78;68.45;98787.03;1703123;83;21140;-69
2022/04/19 04:34:07;;;;;;;6.40;5.85;;;;;;;4.75;68.26;98793.91;1704773;83;21570;-69
2022/04/19 04:36:35;;;;;;;6.90;6.22;;;;;;;4.74;68.11;98795.75;1705049;83;20914;-69
2022/04/19 04:39:03;;;;;;;6.83;6.03;;;;;;;4.76;67.93;98793.78;1675949;84;21094;-68
2022/04/19 04:41:35;;;;;;;6.55;5.95;;;;;;;4.81;67.94;98799.91;1674397;84;20978;-69
2022/04/19 04:44:04;;;;;;;7.35;6.17;;;;;;;4.84;68.01;98794.34;1676071;84;21208;-68
2022/04/19 04:49:36;;;;;;;8.05;6.65;;;;;;;4.99;67.65;98796.30;1675122;85;21042;-68
2022/04/19 04:52:10;;;;;;;5.90;5.40;;;;;;;5.05;67.45;98794.03;1673908;84;21017;-69
2022/04/19 04:54:38;;;;;;;5.08;4.58;;;;;;;5.08;67.16;98793.25;1645746;85;20931;-68
2022/04/19 04:57:07;;;;;;;5.25;4.75;;;;;;;5.09;66.92;98799.33;1675198;84;21005;-68
2022/04/19 04:59:34;;;;;;;4.90;4.40;;;;;;;5.10;66.80;98795.72;1687182;85;20918;-70
2022/04/19 05:02:03;;;;;;;5.12;4.60;;;;;;;5.11;66.63;98794.75;1658643;85;21075;-71
2022/04/19 05:04:32;;;;;;;5.35;4.53;;;;;;;5.15;66.51;98796.09;1658705;85;21035;-69
2022/04/19 05:07:00;;;;;;;6.08;5.40;;;;;;;5.21;66.61;98804.23;1654533;86;21026;-69
2022/04/19 05:09:28;;;;;;;8.80;5.72;;;;;;;5.36;66.59;98801.86;1641787;86;21176;-71
2022/04/19 05:11:55;;;;;;;8.33;5.80;;;;;;;5.43;66.54;98802.41;1658139;85;21458;-69
2022/04/19 05:14:24;;;;;;;10.85;7.03;;;;;;;5.53;66.35;98802.30;1651137;86;21125;-70
2022/04/19 05:16:52;;;;;;;10.88;8.88;;;;;;;5.63;66.01;98805.18;1684025;84;21002;-68
2022/04/19 05:19:20;;;;;;;14.38;9.28;;;;;;;5.67;65.60;98801.75;1689190;84;21003;-68
2022/04/19 05:21:48;;;;;;;12.37;10.08;;;;;;;5.76;65.18;98802.63;1654819;85;21031;-68
2022/04/19 05:24:15;;;;;;;13.35;10.20;;;;;;;5.80;64.72;98802.16;1650994;86;21002;-68
2022/04/19 05:26:43;;;;;;;18.52;12.05;;;;;;;5.85;64.29;98798.59;1660503;85;21446;-70
2022/04/19 05:29:10;;;;;;;18.73;12.30;;;;;;;5.85;64.13;98799.91;1660350;85;21084;-70
2022/04/19 05:31:39;;;;;;;18.52;11.68;;;;;;;5.95;63.96;98795.82;1688136;84;20966;-69
2022/04/19 05:34:08;;;;;;;15.30;12.05;;;;;;;6.00;63.93;98794.38;1651780;86;21886;-69
2022/04/19 05:36:35;;;;;;;20.82;12.70;;;;;;;6.08;63.62;98793.09;1688497;85;21021;-69
2022/04/19 05:39:03;;;;;;;19.45;12.15;;;;;;;6.12;63.09;98795.77;1704661;81;21071;-69
2022/04/19 05:41:31;;;;;;;16.27;11.35;;;;;;;6.13;62.89;98796.56;1676698;84;21146;-69
2022/04/19 05:43:59;;;;;;;22.75;13.32;;;;;;;6.13;62.83;98789.48;1696150;84;21040;-70
2022/04/19 05:46:26;;;;;;;17.95;12.28;;;;;;;6.18;62.60;98800.39;1704906;82;21897;-71
2022/04/19 05:48:54;;;;;;;21.62;14.78;;;;;;;6.25;62.58;98803.73;1704234;84;21033;-69
2022/04/19 05:51:21;;;;;;;18.77;14.47;;;;;;;6.34;62.27;98802.75;1702966;84;21149;-71
2022/04/19 05:53:47;;;;;;;19.75;14.35;;;;;;;6.39;61.86;98804.45;1695636;84;20973;-71
2022/04/19 05:56:14;;;;;;;19.37;14.47;;;;;;;6.49;61.79;98809.91;1679223;84;21039;-68
2022/04/19 05:58:42;;;;;;;15.75;12.88;;;;;;;6.62;61.70;98799.70;1706835;84;21000;-70
2022/04/19 06:01:08;;;;;;;17.17;13.08;;;;;;;6.78;61.50;98796.27;1695722;84;21011;-68
2022/04/19 06:06:23;;;;;;;15.13;11.18;;;;;;;7.24;60.97;98793.03;1695490;84;20969;-69
2022/04/19 06:08:51;;;;;;;18.87;11.88;;;;;;;7.39;60.40;98795.82;1695731;84;21091;-70
2022/04/19 06:11:18;;;;;;;15.85;11.73;;;;;;;7.55;59.74;98793.66;1677474;84;21560;-72
2022/04/19 06:13:46;;;;;;;20.40;13.05;;;;;;;7.64;59.00;98800.60;1692796;84;21505;-70
2022/04/19 06:16:13;;;;;;;15.63;12.37;;;;;;;7.74;58.20;98797.27;1676776;84;21439;-69
2022/04/19 06:18:43;;;;;;;17.70;14.15;;;;;;;7.76;58.14;98796.59;1680928;84;21434;-66
2022/04/19 06:21:12;;;;;;;19.20;13.53;;;;;;;7.83;57.83;98798.89;1675912;84;20981;-66
2022/04/19 06:23:39;;;;;;;21.27;15.03;;;;;;;7.87;57.71;98800.22;1687234;84;21211;-69
2022/04/19 06:26:07;;;;;;;23.02;16.12;;;;;;;7.93;57.21;98800.84;1677877;84;21026;-67
2022/04/19 06:28:34;;;;;;;24.35;14.95;;;;;;;7.91;56.95;98809.47;1682530;84;21463;-69
2022/04/19 06:31:09;;;;;;;19.57;14.35;;;;;;;7.88;57.21;98808.48;1682483;84;21123;-70
2022/04/19 06:33:38;;;;;;;20.82;13.80;;;;;;;8.02;56.75;98806.47;1704171;84;21452;-67
2022/04/19 06:36:06;;;;;;;22.07;13.62;;;;;;;8.04;56.26;98801.81;1704061;84;21589;-68
2022/04/19 06:38:35;;;;;;;17.42;12.50;;;;;;;8.05;56.08;98799.50;1708548;83;21003;-67
2022/04/19 06:41:02;;;;;;;15.75;11.60;;;;;;;8.03;55.94;98798.83;1718074;82;21057;-67
2022/04/19 06:43:31;;;;;;;17.23;12.33;;;;;;;8.10;55.71;98799.82;1719072;82;21030;-68
2022/04/19 06:46:00;;;;;;;14.78;12.00;;;;;;;8.19;55.40;98804.57;1715185;82;21611;-67
2022/04/19 06:48:29;;;;;;;12.35;10.20;;;;;;;8.25;55.29;98812.67;1713629;83;22141;-68
2022/04/19 06:50:56;;;;;;;14.60;11.03;;;;;;;8.35;55.00;98815.98;1717377;82;20950;-69
2022/04/19 06:53:22;;;;;;;13.75;10.20;;;;;;;8.64;54.62;98816.67;1715456;82;20876;-66
2022/04/19 06:55:51;;;;;;;15.88;12.30;;;;;;;8.86;54.41;98815.89;1714579;83;20962;-66
2022/04/19 06:58:19;;;;;;;14.98;12.03;;;;;;;9.15;54.25;98817.86;1713047;82;21005;-67
2022/04/19 07:00:46;;;;;;;16.35;13.70;;;;;;;9.41;53.46;98809.52;1719960;82;22066;-68
2022/04/19 07:03:14;;;;;;;19.17;14.10;;;;;;;9.63;52.44;98812.63;1720076;81;20880;-65
2022/04/19 07:06:00;;;;;;;21.60;14.50;;;;;;;10.01;51.34;98804.92;1720199;82;25607;-67
2022/04/19 07:08:28;;;;;;;16.00;12.95;;;;;;;10.01;51.34;98804.92;1722699;81;21015;-69
2022/04/19 07:10:55;;;;;;;15.68;12.47;;;;;;;10.31;50.81;98807.12;1715715;82;20888;-69
2022/04/19 07:13:25;;;;;;;16.95;13.60;;;;;;;10.72;49.86;98801.59;1702981;82;21179;-68
2022/04/19 07:15:53;;;;;;;17.10;12.58;;;;;;;11.02;49.39;98807.66;1718650;82;20916;-69
2022/04/19 07:18:24;;;;;;;15.03;13.25;;;;;;;11.30;48.97;98798.39;1732960;82;20882;-69
2022/04/19 07:26:37;;;;;;;20.57;14.73;;;;;;;11.81;47.13;98797.73;1720714;82;21101;-70
2022/04/19 07:29:05;;;;;;;31.60;21.50;;;;;;;11.69;47.03;98795.59;1715319;82;20999;-68
2022/04/19 07:31:33;;;;;;;40.83;28.50;;;;;;;11.63;46.94;98794.16;1714879;82;20907;-68
2022/04/19 07:34:03;;;;;;;43.10;27.20;;;;;;;11.64;46.45;98793.98;1715129;82;20953;-68
2022/04/19 07:36:30;;;;;;;38.33;26.00;;;;;;;11.65;46.34;98789.48;1714975;82;20935;-69
2022/04/19 07:38:58;;;;;;;39.00;26.65;;;;;;;11.52;46.45;98790.18;1718193;82;21278;-69
2022/04/19 07:41:40;;;;;;;38.10;25.37;;;;;;;11.64;46.16;98796.66;1713823;82;20967;-67
2022/04/19 07:44:10;;;;;;;44.58;28.00;;;;;;;11.63;45.97;98798.16;1718115;82;21039;-66
2022/04/19 07:46:37;;;;;;;34.23;23.55;;;;;;;11.75;45.18;98800.16;1693062;83;20967;-68
2022/04/19 07:49:04;;;;;;;25.12;19.73;;;;;;;11.79;45.29;98795.24;1684644;83;21031;-68
2022/04/19 07:51:32;;;;;;;23.62;18.17;;;;;;;11.86;45.27;98788.64;1714829;82;20900;-68
2022/04/19 07:53:59;;;;;;;21.80;16.55;;;;;;;11.94;45.39;98792.49;1684494;83;21322;-69
2022/04/19 07:56:26;;;;;;;16.40;14.07;;;;;;;12.06;45.60;98791.75;1714878;82;20911;-67
2022/04/19 07:58:53;;;;;;;14.28;12.60;;;;;;;12.50;44.94;98794.52;1718253;82;20942;-67
2022/04/19 08:01:23;;;;;;;12.95;11.05;;;;;;;12.85;44.03;98786.76;1714840;82;21563;-69
2022/04/19 08:03:54;;;;;;;16.07;10.63;;;;;;;13.29;43.63;98780.91;1717765;83;21433;-69
2022/04/19 08:06:22;;;;;;;10.75;9.65;;;;;;;13.67;42.97;98781.11;1714734;82;20994;-68
2022/04/19 08:08:49;;;;;;;10.15;9.15;;;;;;;13.86;42.38;98785.12;1718271;82;21623;-68
2022/04/19 08:11:19;;;;;;;11.83;10.60;;;;;;;14.04;41.86;98787.14;1713012;82;21576;-69
2022/04/19 08:13:46;;;;;;;11.20;10.10;;;;;;;14.42;40.49;98785.41;1684163;85;21442;-68
2022/04/19 08:16:12;;;;;;;11.35;10.10;;;;;;;14.59;40.07;98789.27;1714922;82;21111;-68
2022/04/19 08:18:41;;;;;;;10.43;9.38;;;;;;;14.73;39.98;98788.16;1717828;82;20907;-71
2022/04/19 08:21:08;;;;;;;11.15;9.35;;;;;;;15.25;39.20;98784.89;1667079;85;21022;-71
2022/04/19 08:23:35;;;;;;;11.38;9.53;;;;;;;15.31;38.95;98786.69;1711613;83;20932;-70
2022/04/19 08:26:05;;;;;;;10.53;9.30;;;;;;;15.63;38.15;98784.31;1712794;82;20947;-68
2022/04/19 08:28:32;;;;;;;10.80;8.45;;;;;;;15.40;37.87;98789.42;1714087;83;21257;-70
2022/04/19 08:31:01;;;;;;;13.30;8.80;;;;;;;15.58;37.53;98792.70;1713995;83;21598;-67
2022/04/19 08:33:29;;;;;;;9.83;8.58;;;;;;;15.91;36.47;98784.67;1713172;83;21456;-72
2022/04/19 08:35:58;;;;;;;8.73;7.67;;;;;;;15.71;36.29;98785.89;1713523;82;21042;-72
2022/04/19 08:38:25;;;;;;;13.72;6.72;;;;;;;15.55;36.01;98787.27;1712569;82;21038;-66
2022/04/19 08:40:51;;;;;;;8.15;7.08;;;;;;;15.36;36.12;98782.32;1714112;83;21930;-70
2022/04/19 08:43:19;;;;;;;7.80;6.80;;;;;;;15.37;35.88;98784.48;1701528;83;21038;-66
2022/04/19 08:45:46;;;;;;;10.28;7.53;;;;;;;15.22;36.03;98787.48;1712558;83;20896;-68
2022/04/19 08:48:15;;;;;;;10.98;6.87;;;;;;;15.31;36.07;98784.00;1714119;83;20904;-69
2022/04/19 08:50:49;;;;;;;8.68;7.75;;;;;;;15.16;36.24;98784.84;1712660;83;21486;-70
2022/04/19 08:58:48;;;;;;;7.00;6.33;;;;;;;14.78;36.33;98782.98;1714260;83;21002;-70
2022/04/19 09:01:16;;;;;;;7.30;6.60;;;;;;;14.98;36.08;98782.06;1714080;82;21497;-70
2022/04/19 09:03:43;;;;;;;8.53;7.65;;;;;;;15.43;35.47;98778.27;1713931;83;20948;-70
2022/04/19 09:06:10;;;;;;;8.13;7.33;;;;;;;15.83;34.99;98772.88;1713170;82;21262;-69
2022/04/19 09:08:37;;;;;;;8.18;7.28;;;;;;;16.20;34.74;98774.27;1714182;82;20844;-71
2022/04/19 09:11:06;;;;;;;8.13;7.33;;;;;;;16.12;34.83;98773.22;1713998;83;21485;-70
2022/04/19 09:13:33;;;;;;;6.75;6.12;;;;;;;16.24;34.25;98765.54;1713090;83;20991;-69
2022/04/19 09:16:06;;;;;;;6.90;6.03;;;;;;;16.08;34.05;98763.98;1713984;83;21658;-70
2022/04/19 09:18:35;;;;;;;9.65;6.35;;;;;;;16.14;33.93;98763.11;1713587;83;21253;-67
2022/04/19 09:21:05;;;;;;;5.17;3.90;;;;;;;17.23;33.21;98755.72;1712567;83;20961;-70
2022/04/19 09:23:34;;;;;;;4.65;3.60;;;;;;;18.18;32.30;98753.16;1714182;83;21564;-69
2022/04/19 09:26:05;;;;;;;3.90;3.50;;;;;;;19.16;29.98;98756.20;1712599;82;21551;-69
2022/04/19 09:28:34;;;;;;;3.60;3.30;;;;;;;19.88;28.27;98742.30;1713641;83;21011;-66
2022/04/19 09:31:11;;;;;;;3.83;3.50;;;;;;;20.43;27.97;98744.45;1712593;82;20961;-67
2022/04/19 09:33:39;;;;;;;4.22;3.83;;;;;;;19.77;28.53;98738.63;1714062;82;21517;-69
2022/04/19 09:36:07;;;;;;;3.55;3.25;;;;;;;19.52;28.41;98743.64;1713587;83;20935;-69
2022/04/19 09:38:40;;;;;;;3.45;3.10;;;;;;;18.91;28.59;98743.89;1713408;82;21936;-68
2022/04/19 09:41:10;;;;;;;4.22;3.33;;;;;;;18.67;28.56;98747.73;1714384;83;21516;-70
2022/04/19 09:43:37;;;;;;;4.30;3.70;;;;;;;19.28;28.20;98742.12;1714269;83;21434;-68
2022/04/19 09:46:04;;;;;;;5.00;4.50;;;;;;;18.80;28.66;98740.71;1714086;83;20942;-68
2022/04/19 09:48:37;;;;;;;4.72;4.33;;;;;;;19.21;27.89;98749.03;1714234;83;20998;-71
2022/04/19 09:51:08;;;;;;;5.95;5.45;;;;;;;18.72;28.09;98737.60;1712800;83;21521;-67
2022/04/19 09:53:47;;;;;;;5.22;4.72;;;;;;;19.63;26.97;98732.75;1713908;83;20951;-70
2022/04/19 09:56:18;;;;;;;4.42;4.03;;;;;;;20.32;26.33;98727.83;1703643;83;21166;-69
2022/04/19 09:58:49;;;;;;;4.55;3.65;;;;;;;20.91;25.62;98716.61;1714149;83;20920;-70
2022/04/19 10:09:45;;;;;;;5.40;3.65;;;;;;;19.54;26.67;98707.78;1711605;82;21246;-67
2022/04/19 10:12:12;;;;;;;3.58;3.20;;;;;;;18.74;27.69;98711.23;1714942;82;20931;-68
2022/04/19 10:14:39;;;;;;;4.80;3.67;;;;;;;18.21;28.28;98715.00;1715350;82;20994;-70
2022/04/19 10:17:07;;;;;;;4.53;4.12;;;;;;;17.66;28.95;98715.92;1714885;82;21585;-69
2022/04/19 10:19:34;;;;;;;4.37;3.98;;;;;;;17.36;29.73;98713.84;1714990;82;20998;-68
2022/04/19 10:22:07;;;;;;;10.45;6.25;;;;;;;17.17;30.09;98713.10;1717937;83;21852;-68
2022/04/19 10:24:47;;;;;;;7.00;6.30;;;;;;;17.00;30.01;98718.83;1714933;82;21009;-69
2022/04/19 10:27:13;;;;;;;7.60;6.33;;;;;;;16.92;29.94;98716.47;1718099;82;21457;-67
2022/04/19 10:29:43;;;;;;;6.42;5.47;;;;;;;16.85;29.38;98714.92;1714989;82;20948;-69
2022/04/19 10:32:11;;;;;;;8.10;6.08;;;;;;;16.65;29.40;98715.22;1662768;85;21007;-68
2022/04/19 10:34:40;;;;;;;6.83;5.80;;;;;;;16.42;29.48;98713.73;1713076;82;21353;-66
2022/04/19 10:37:27;;;;;;;6.30;5.65;;;;;;;16.27;29.72;98711.97;1712868;83;20994;-69
2022/04/19 10:40:01;;;;;;;10.72;5.78;;;;;;;16.28;30.07;98717.10;1716978;83;21113;-68
2022/04/19 10:42:33;;;;;;;7.05;5.78;;;;;;;16.20;30.08;98713.37;1711108;83;20903;-67
2022/04/19 10:45:17;;;;;;;6.50;5.60;;;;;;;15.98;30.17;98708.17;1722521;82;20992;-69
2022/04/19 10:47:59;;;;;;;8.58;6.90;;;;;;;15.73;30.43;98713.58;1720449;82;21143;-70
2022/04/19 10:50:34;;;;;;;9.70;8.28;;;;;;;15.43;31.17;98709.92;1722275;82;20975;-68
2022/04/19 10:53:08;;;;;;;;;;;;;;;15.19;31.73;98710.73;1723438;82;22167;-71
2022/04/19 10:55:37;;;;;;;12.53;8.23;;;;;;;14.90;31.82;98714.03;1721109;81;20087;-69
2022/04/19 11:00:45;;;;;;;6.87;5.92;;;;;;;14.72;32.44;98712.91;1721528;82;21151;-67
2022/04/19 11:03:19;;;;;;;4.03;3.62;;;;;;;14.73;32.22;98707.05;1722438;83;21496;-70
2022/04/19 11:06:01;;;;;;;3.30;3.00;;;;;;;14.66;31.92;98708.41;1720938;83;20895;-70
2022/04/19 11:08:31;;;;;;;5.70;3.25;;;;;;;14.58;31.84;98714.01;1722593;83;20856;-67
2022/04/19 11:11:20;;;;;;;4.05;2.87;;;;;;;14.39;32.33;98714.91;1721970;82;21422;-67
2022/04/19 11:13:41;;;;;;;6.17;4.08;;;;;;;14.40;32.58;98713.89;1721758;83;21263;-70
2022/04/19 11:16:08;;;;;;;5.08;4.30;;;;;;;14.51;32.58;98710.55;1722387;83;20895;-69
2022/04/19 11:18:45;;;;;;;5.70;4.10;;;;;;;14.55;32.62;98711.75;1721437;83;20950;-71
2022/04/19 11:21:14;;;;;;;6.12;4.45;;;;;;;14.53;32.42;98712.49;1712059;83;21417;-68
2022/04/19 11:23:45;;;;;;;4.53;3.92;;;;;;;14.49;32.57;98711.80;1721450;82;20892;-69
2022/04/19 11:26:41;;;;;;;5.00;3.02;;;;;;;14.49;32.70;98703.27;1712146;83;20844;-69
2022/04/19 11:29:16;;;;;;;4.97;3.65;;;;;;;14.61;32.41;98710.08;1722338;83;20916;-71
2022/04/19 11:31:51;;;;;;;4.30;3.90;;;;;;;14.54;31.92;98710.13;1721102;83;21006;-70
2022/04/19 11:34:19;;;;;;;3.55;3.22;;;;;;;14.52;32.00;98708.16;1713150;83;20978;-67
2022/04/19 11:36:45;;;;;;;4.50;3.20;;;;;;;14.52;31.99;98710.05;1720802;83;21005;-68
2022/04/19 11:47:58;;;;;;;3.58;2.98;;;;;;;14.58;31.72;98711.33;1706578;84;20933;-67
2022/04/19 11:50:29;;;;;;;4.87;3.92;;;;;;;14.46;31.70;98711.72;1706912;84;20956;-70
2022/04/19 11:53:00;;;;;;;7.33;6.15;;;;;;;14.32;31.73;98713.30;1706511;84;21324;-67
2022/04/19 11:55:28;;;;;;;6.55;5.12;;;;;;;14.17;31.90;98710.88;1679717;84;20925;-68
2022/04/19 11:58:06;;;;;;;6.60;5.30;;;;;;;14.06;32.08;98701.66;1706532;84;20948;-72
2022/04/19 12:00:33;;;;;;;5.75;4.97;;;;;;;14.00;32.18;98705.70;1706667;84;21016;-68
2022/04/19 12:03:02;;;;;;;5.70;4.53;;;;;;;13.90;32.45;98702.11;1706403;84;21037;-71
2022/04/19 12:05:32;;;;;;;6.20;4.17;;;;;;;13.84;32.55;98700.80;1707020;84;21211;-71
2022/04/19 12:08:00;;;;;;;3.95;3.47;;;;;;;13.82;32.43;98702.88;1706418;84;21542;-72
2022/04/19 12:10:28;;;;;;;4.17;3.60;;;;;;;13.83;32.32;98706.66;1706983;84;20960;-72
2022/04/19 12:12:55;;;;;;;7.80;4.00;;;;;;;13.83;32.44;98701.82;1706550;84;46588;-72
2022/04/19 12:15:40;;;;;;;3.80;3.40;;;;;;;13.88;32.41;98706.02;1706933;84;20917;-70
2022/04/19 12:18:10;;;;;;;3.92;2.83;;;;;;;13.87;32.29;98701.73;1695605;84;21899;-70
2022/04/19 12:20:46;;;;;;;5.20;2.52;;;;;;;13.80;32.31;98700.90;1706999;84;20925;-70
2022/04/19 12:23:18;;;;;;;3.67;2.80;;;;;;;13.79;32.15;98700.61;1707069;84;21574;-69
2022/04/19 12:26:07;;;;;;;3.60;3.22;;;;;;;13.78;32.07;98701.62;1706536;83;20928;-68
2022/04/19 12:28:44;;;;;;;3.50;2.70;;;;;;;13.73;32.11;98702.27;1706831;84;21020;-70
2022/04/19 12:31:34;;;;;;;4.33;3.12;;;;;;;13.76;32.21;98702.36;1696258;84;21220;-68
2022/04/19 12:34:02;;;;;;;4.00;3.40;;;;;;;13.74;32.18;98703.09;1706391;84;21008;-70